Time;durP1;ratioP1;P1;durP2;ratioP2;P2;SDS_P1;SDS_P2;PMS_P1;PMS_P2;Temp;Humidity;BMP_temperature;BMP_pressure;BME280_temperature;BME280_humidity;BME280_pressure;Samples;Min_cycle;Max_cycle;Signal;HPM_P1;HPM_P2
2021/01/12 00:00:28;;;;;;;28.75;8.07;;;7.70;99.90;;;;;;4963589;28;20058;-89
2021/01/12 00:02:55;;;;;;;28.30;6.97;;;7.70;99.90;;;;;;4964136;28;20035;-90
2021/01/12 00:05:21;;;;;;;25.95;6.47;;;7.70;99.90;;;;;;4964695;28;20023;-90
2021/01/12 00:07:48;;;;;;;22.55;6.10;;;7.70;99.90;;;;;;4965378;28;20026;-90
2021/01/12 00:10:22;;;;;;;23.48;6.65;;;7.70;99.90;;;;;;4965431;28;20030;-90
2021/01/12 00:12:48;;;;;;;28.92;6.35;;;7.70;99.90;;;;;;4965284;28;20031;-91
2021/01/12 00:15:14;;;;;;;34.25;7.38;;;7.70;99.90;;;;;;4983022;28;20108;-90
2021/01/12 00:17:42;;;;;;;26.85;6.68;;;7.70;99.90;;;;;;4966572;28;20106;-90
2021/01/12 00:20:09;;;;;;;34.45;7.22;;;7.70;99.90;;;;;;4982268;28;20058;-91
2021/01/12 00:22:38;;;;;;;32.15;7.45;;;7.70;99.90;;;;;;4982647;28;20058;-92
2021/01/12 00:25:06;;;;;;;38.53;7.53;;;7.80;99.90;;;;;;4968708;28;20026;-89
2021/01/12 00:27:32;;;;;;;50.05;8.90;;;7.80;99.90;;;;;;4985529;28;20079;-90
2021/01/12 00:29:57;;;;;;;44.85;9.05;;;7.80;99.90;;;;;;4965517;28;20421;-90
2021/01/12 00:32:27;;;;;;;36.25;8.35;;;7.80;99.90;;;;;;4965212;28;20030;-90
2021/01/12 00:34:54;;;;;;;48.50;9.85;;;7.80;99.90;;;;;;4965330;28;20037;-88
2021/01/12 00:37:21;;;;;;;44.17;8.40;;;7.80;99.90;;;;;;4964532;28;20031;-89
2021/01/12 00:39:49;;;;;;;37.88;8.13;;;7.80;99.90;;;;;;4982236;28;20113;-91
2021/01/12 00:42:17;;;;;;;43.03;8.77;;;7.80;99.90;;;;;;4964370;28;20058;-89
2021/01/12 00:44:43;;;;;;;41.10;8.48;;;7.80;99.90;;;;;;4964821;28;20037;-90
2021/01/12 00:47:10;;;;;;;44.05;9.35;;;7.80;99.90;;;;;;4964532;28;20030;-90
2021/01/12 00:49:35;;;;;;;39.85;9.18;;;7.80;99.90;;;;;;4964794;28;20117;-90
2021/01/12 00:52:02;;;;;;;57.03;10.30;;;7.90;99.90;;;;;;4964669;28;20057;-89
2021/01/12 00:54:29;;;;;;;49.13;9.45;;;7.90;99.90;;;;;;4964300;28;20027;-90
2021/01/12 00:56:57;;;;;;;53.50;9.32;;;7.90;99.90;;;;;;4964595;28;20130;-89
2021/01/12 00:59:26;;;;;;;49.85;10.88;;;7.90;99.90;;;;;;4964484;28;20045;-89
2021/01/12 01:01:52;;;;;;;52.15;12.13;;;7.90;99.90;;;;;;4961609;28;20070;-88
2021/01/12 01:04:18;;;;;;;61.15;10.75;;;7.90;99.90;;;;;;4961838;28;20055;-90
2021/01/12 01:06:44;;;;;;;51.95;11.57;;;8.00;99.90;;;;;;4979661;28;20105;-89
2021/01/12 01:09:12;;;;;;;54.20;10.70;;;8.00;99.90;;;;;;4961549;28;20067;-90
2021/01/12 01:11:51;;;;;;;44.38;9.13;;;8.00;99.90;;;;;;4961569;28;20031;-88
2021/01/12 01:14:18;;;;;;;62.08;10.02;;;8.00;99.90;;;;;;4978800;28;20408;-90
2021/01/12 01:16:44;;;;;;;56.20;9.32;;;8.00;99.90;;;;;;4960540;28;20121;-90
2021/01/12 01:19:11;;;;;;;51.83;9.63;;;8.00;99.90;;;;;;4959824;28;20035;-90
2021/01/12 01:21:37;;;;;;;53.42;9.65;;;8.10;99.90;;;;;;4961076;28;20078;-89
2021/01/12 01:24:03;;;;;;;37.60;7.75;;;8.10;99.90;;;;;;4977829;28;20035;-90
2021/01/12 01:26:31;;;;;;;52.88;9.43;;;8.10;99.90;;;;;;4960303;28;20027;-91
2021/01/12 01:28:57;;;;;;;54.40;9.63;;;8.10;99.90;;;;;;4960256;28;20019;-89
2021/01/12 01:31:22;;;;;;;42.85;8.98;;;8.10;99.90;;;;;;4959806;28;20058;-90
2021/01/12 01:33:48;;;;;;;47.75;8.68;;;8.10;99.90;;;;;;4960386;28;20369;-89
2021/01/12 01:36:17;;;;;;;46.47;9.45;;;8.10;99.90;;;;;;4959610;28;20138;-89
2021/01/12 01:38:43;;;;;;;40.40;8.55;;;8.20;99.90;;;;;;4960759;28;20465;-89
2021/01/12 01:41:10;;;;;;;44.20;9.75;;;8.20;99.90;;;;;;4959999;28;20061;-90
2021/01/12 01:43:36;;;;;;;43.85;9.13;;;8.20;99.90;;;;;;4961699;28;20026;-90
2021/01/12 01:46:06;;;;;;;44.33;9.13;;;8.20;99.90;;;;;;4962488;28;20027;-89
2021/01/12 01:48:36;;;;;;;40.63;8.27;;;8.20;99.90;;;;;;4962460;28;20031;-90
2021/01/12 01:51:03;;;;;;;39.67;8.23;;;8.30;99.90;;;;;;4961657;28;20034;-90
2021/01/12 01:53:33;;;;;;;41.20;8.93;;;8.30;99.90;;;;;;4961728;28;20416;-90
2021/01/12 01:56:05;;;;;;;51.05;9.20;;;8.30;99.90;;;;;;4961519;28;20019;-90
2021/01/12 01:58:31;;;;;;;42.20;7.85;;;8.30;99.90;;;;;;4961804;28;20054;-89
2021/01/12 02:00:57;;;;;;;50.22;9.02;;;8.30;99.90;;;;;;4960644;28;20258;-90
2021/01/12 02:03:30;;;;;;;38.67;9.55;;;8.30;99.90;;;;;;4960950;28;20369;-90
2021/01/12 02:06:13;;;;;;;36.85;8.02;;;8.40;99.90;;;;;;4978858;28;20023;-90
2021/01/12 02:08:52;;;;;;;43.60;8.43;;;8.30;99.90;;;;;;4961125;28;20031;-90
2021/01/12 02:11:20;;;;;;;46.97;8.95;;;8.30;99.90;;;;;;4960927;28;20038;-90
2021/01/12 02:13:50;;;;;;;37.60;7.45;;;8.30;99.90;;;;;;4960180;28;20050;-88
2021/01/12 02:16:16;;;;;;;42.13;7.85;;;8.30;99.90;;;;;;4960748;28;20358;-89
2021/01/12 02:18:42;;;;;;;51.30;8.38;;;8.30;99.90;;;;;;4960264;28;20031;-89
2021/01/12 02:21:08;;;;;;;49.13;8.02;;;8.30;99.90;;;;;;4959622;28;20123;-89
2021/01/12 02:23:54;;;;;;;39.70;7.82;;;8.30;99.90;;;;;;4960618;28;20464;-89
2021/01/12 02:26:21;;;;;;;38.70;7.07;;;8.30;99.90;;;;;;4959874;28;20027;-90
2021/01/12 02:28:47;;;;;;;45.75;7.93;;;8.30;99.90;;;;;;4960303;28;20517;-90
2021/01/12 02:31:16;;;;;;;40.38;7.93;;;8.30;99.90;;;;;;4960279;28;20037;-93
2021/01/12 02:33:44;;;;;;;37.05;8.23;;;8.30;99.90;;;;;;4959925;28;20026;-90
2021/01/12 02:36:14;;;;;;;41.00;8.02;;;8.30;99.90;;;;;;4960163;28;20476;-91
2021/01/12 02:38:41;;;;;;;45.53;8.65;;;8.30;99.90;;;;;;4960110;28;20030;-90
2021/01/12 02:41:14;;;;;;;37.25;8.40;;;8.40;99.90;;;;;;4959048;28;20062;-91
2021/01/12 02:43:51;;;;;;;46.13;8.52;;;8.40;99.90;;;;;;4960902;28;20027;-91
2021/01/12 02:46:16;;;;;;;41.13;7.93;;;8.30;99.90;;;;;;4960144;28;20026;-90
2021/01/12 02:48:42;;;;;;;37.50;7.75;;;8.40;99.90;;;;;;4959454;28;20113;-89
2021/01/12 02:51:10;;;;;;;41.95;8.45;;;8.30;99.90;;;;;;4958541;28;20023;-89
2021/01/12 02:53:36;;;;;;;43.72;7.65;;;8.30;99.90;;;;;;4958987;28;20037;-90
2021/01/12 02:56:02;;;;;;;37.30;7.85;;;8.40;99.90;;;;;;4959219;28;20388;-90
2021/01/12 02:58:30;;;;;;;37.28;7.75;;;8.40;99.90;;;;;;4976855;28;20034;-91
2021/01/12 03:00:56;;;;;;;35.58;7.05;;;8.30;99.90;;;;;;4960769;28;20061;-90
2021/01/12 03:03:22;;;;;;;37.85;6.78;;;8.40;99.90;;;;;;4961560;28;20039;-91
2021/01/12 03:05:47;;;;;;;41.60;6.72;;;8.40;99.90;;;;;;4960625;28;20035;-91
2021/01/12 03:08:14;;;;;;;34.70;6.90;;;8.40;99.90;;;;;;4960212;28;20038;-91
2021/01/12 03:10:42;;;;;;;37.97;7.00;;;8.40;99.90;;;;;;4959832;28;20027;-90
2021/01/12 03:13:08;;;;;;;39.75;7.60;;;8.40;99.90;;;;;;4961377;28;20046;-92
2021/01/12 03:15:41;;;;;;;30.67;6.18;;;8.40;99.90;;;;;;4967594;28;20037;-91
2021/01/12 03:18:12;;;;;;;33.83;6.93;;;8.40;99.90;;;;;;4976215;28;20055;-92
2021/01/12 03:20:38;;;;;;;28.40;5.68;;;8.40;99.90;;;;;;4980043;28;20070;-91
2021/01/12 03:23:04;;;;;;;28.75;5.65;;;8.40;99.90;;;;;;4967328;28;20126;-90
2021/01/12 03:25:32;;;;;;;15.73;3.65;;;8.40;99.90;;;;;;4972518;28;20103;-91
2021/01/12 03:28:01;;;;;;;19.30;3.72;;;8.30;99.90;;;;;;4979157;28;20037;-90
2021/01/12 03:30:27;;;;;;;18.10;3.20;;;8.30;99.90;;;;;;4978243;28;20125;-91
2021/01/12 03:32:53;;;;;;;11.90;3.03;;;8.30;99.90;;;;;;4979577;28;20022;-90
2021/01/12 03:35:22;;;;;;;12.85;2.33;;;8.30;99.90;;;;;;4980574;28;20099;-91
2021/01/12 03:37:52;;;;;;;12.98;2.88;;;8.40;99.90;;;;;;4980345;28;20054;-91
2021/01/12 03:40:20;;;;;;;13.05;2.42;;;8.30;99.90;;;;;;4979927;28;20043;-91
2021/01/12 03:42:46;;;;;;;20.23;3.00;;;8.30;99.90;;;;;;4980145;28;20027;-91
2021/01/12 03:45:12;;;;;;;14.55;2.60;;;8.30;99.90;;;;;;4977995;28;20046;-89
2021/01/12 03:47:38;;;;;;;28.27;5.38;;;8.40;99.90;;;;;;4978605;28;20034;-89
2021/01/12 03:50:06;;;;;;;33.22;5.60;;;8.40;99.90;;;;;;4980405;28;20030;-90
2021/01/12 03:52:37;;;;;;;35.65;6.63;;;8.50;99.90;;;;;;4981070;28;20098;-92
2021/01/12 03:55:14;;;;;;;;;;;;;;;;;;;;;
2021/01/12 03:57:45;;;;;;;38.42;6.43;;;8.50;99.90;;;;;;4997188;28;20057;-91
2021/01/12 04:00:12;;;;;;;25.45;5.15;;;8.50;99.90;;;;;;4981281;28;20059;-91
2021/01/12 04:02:39;;;;;;;34.63;6.60;;;8.40;99.90;;;;;;4981266;28;20023;-91
2021/01/12 04:05:05;;;;;;;33.88;7.68;;;8.40;99.90;;;;;;4978354;28;20046;-91
2021/01/12 04:07:31;;;;;;;40.30;8.38;;;8.40;99.90;;;;;;4975578;28;20007;-91
2021/01/12 04:10:07;;;;;;;38.50;6.88;;;8.30;99.90;;;;;;4973196;28;20206;-90
2021/01/12 04:12:33;;;;;;;41.35;7.45;;;8.40;99.90;;;;;;4973753;28;20031;-91
2021/01/12 04:14:59;;;;;;;36.80;6.30;;;8.40;99.90;;;;;;4974053;28;20055;-91
2021/01/12 04:17:27;;;;;;;30.42;6.28;;;8.40;99.90;;;;;;4972984;28;20023;-91
2021/01/12 04:19:52;;;;;;;40.53;6.90;;;8.50;99.90;;;;;;4961244;28;20374;-91
2021/01/12 04:22:21;;;;;;;26.92;6.10;;;8.40;99.90;;;;;;4959268;28;20081;-90
2021/01/12 04:24:51;;;;;;;37.85;6.53;;;8.50;99.90;;;;;;4958985;28;20047;-90
2021/01/12 04:27:16;;;;;;;37.28;5.78;;;8.50;99.90;;;;;;4958625;28;20030;-90
2021/01/12 04:29:42;;;;;;;34.72;5.57;;;8.50;99.90;;;;;;4959038;28;20027;-90
2021/01/12 04:32:08;;;;;;;34.28;6.47;;;8.50;99.90;;;;;;4959033;28;20481;-90
2021/01/12 04:34:34;;;;;;;34.13;5.93;;;8.50;99.90;;;;;;4958688;28;20027;-90
2021/01/12 04:36:59;;;;;;;30.23;5.28;;;8.50;99.90;;;;;;4961784;28;20026;-90
2021/01/12 04:39:25;;;;;;;24.25;5.07;;;8.40;99.90;;;;;;4962044;28;20038;-90
2021/01/12 04:41:53;;;;;;;30.95;6.20;;;8.50;99.90;;;;;;4961519;28;20408;-91
2021/01/12 04:44:21;;;;;;;30.92;6.03;;;8.40;99.90;;;;;;4962217;28;20029;-89
2021/01/12 04:46:49;;;;;;;26.75;5.00;;;8.40;99.90;;;;;;4961906;28;20162;-90
2021/01/12 04:49:15;;;;;;;30.63;5.22;;;8.40;99.90;;;;;;4961838;28;20031;-90
2021/01/12 04:51:44;;;;;;;30.73;5.25;;;8.40;99.90;;;;;;4961755;28;20039;-89
2021/01/12 04:54:10;;;;;;;22.08;4.68;;;8.40;99.90;;;;;;4962069;28;20022;-88
2021/01/12 04:56:35;;;;;;;26.17;4.35;;;8.30;99.90;;;;;;4961569;28;20466;-89
2021/01/12 04:59:04;;;;;;;24.95;4.00;;;8.30;99.90;;;;;;4979523;28;20030;-90
2021/01/12 05:01:32;;;;;;;24.92;3.28;;;8.40;99.90;;;;;;4963265;28;20037;-92
2021/01/12 05:04:04;;;;;;;19.02;4.10;;;8.30;99.90;;;;;;4963849;28;20098;-91
2021/01/12 05:06:30;;;;;;;15.73;3.53;;;8.30;99.90;;;;;;4982261;28;20026;-91
2021/01/12 05:08:56;;;;;;;20.67;3.90;;;8.30;99.90;;;;;;4965214;28;20022;-90
2021/01/12 05:11:24;;;;;;;25.40;4.68;;;8.30;99.90;;;;;;4962437;28;20062;-90
2021/01/12 05:14:02;;;;;;;19.52;3.65;;;8.30;99.90;;;;;;4962039;28;20038;-91
2021/01/12 05:16:28;;;;;;;28.42;4.90;;;8.30;99.90;;;;;;4959119;28;20535;-90
2021/01/12 05:18:55;;;;;;;17.67;4.65;;;8.20;99.90;;;;;;4961050;28;20121;-91
2021/01/12 05:21:29;;;;;;;27.08;4.78;;;8.30;99.90;;;;;;4960690;28;20027;-91
2021/01/12 05:24:02;;;;;;;29.45;4.25;;;8.20;99.90;;;;;;4961367;28;20042;-91
2021/01/12 05:27:03;;;;;;;24.20;3.97;;;8.20;99.90;;;;;;4962931;28;20181;-90
2021/01/12 05:29:32;;;;;;;20.65;4.50;;;8.20;99.90;;;;;;4960733;28;20023;-91
2021/01/12 05:32:07;;;;;;;24.02;4.13;;;8.20;99.90;;;;;;4960939;28;20046;-90
2021/01/12 05:34:36;;;;;;;21.25;4.35;;;8.20;99.90;;;;;;4961490;28;20069;-92
2021/01/12 05:37:09;;;;;;;20.55;4.18;;;8.30;99.90;;;;;;4960478;28;20038;-90
2021/01/12 05:39:37;;;;;;;16.52;4.45;;;8.30;99.90;;;;;;4974778;28;20026;-92
2021/01/12 05:42:06;;;;;;;24.05;4.68;;;8.30;99.90;;;;;;4980210;28;20046;-89
2021/01/12 05:44:42;;;;;;;25.75;4.35;;;8.20;99.90;;;;;;4991498;28;20330;-91
2021/01/12 05:47:15;;;;;;;28.85;6.00;;;8.20;99.90;;;;;;4962687;28;20037;-91
2021/01/12 05:49:43;;;;;;;24.88;5.13;;;8.10;99.90;;;;;;4961730;28;20027;-91
2021/01/12 05:52:10;;;;;;;30.08;5.72;;;8.10;99.90;;;;;;4960983;28;20082;-89
2021/01/12 05:54:36;;;;;;;21.88;4.65;;;8.10;99.90;;;;;;4977035;28;20026;-90
2021/01/12 05:57:04;;;;;;;26.05;4.40;;;8.00;99.90;;;;;;4959633;28;20035;-90
2021/01/12 05:59:32;;;;;;;33.22;4.53;;;8.00;99.90;;;;;;4960150;28;20049;-90
2021/01/12 06:02:04;;;;;;;25.02;4.45;;;8.00;99.90;;;;;;4959198;28;20035;-90
2021/01/12 06:04:34;;;;;;;23.52;4.53;;;8.10;99.90;;;;;;4959309;28;20552;-90
2021/01/12 06:07:04;;;;;;;18.90;3.97;;;8.00;99.90;;;;;;4959706;28;20030;-90
2021/01/12 06:09:29;;;;;;;31.00;4.90;;;8.00;99.90;;;;;;4976943;28;20023;-89
2021/01/12 06:11:57;;;;;;;25.95;5.15;;;8.00;99.90;;;;;;4959166;28;20030;-89
2021/01/12 06:14:23;;;;;;;35.05;5.30;;;8.00;99.90;;;;;;4959231;28;20038;-89
2021/01/12 06:16:55;;;;;;;38.50;5.78;;;8.10;99.90;;;;;;4961017;28;20496;-89
2021/01/12 06:19:25;;;;;;;23.33;4.97;;;8.10;99.90;;;;;;4959081;28;20023;-90
2021/01/12 06:22:14;;;;;;;22.45;3.83;;;8.00;99.90;;;;;;4959096;28;20094;-90
2021/01/12 06:24:53;;;;;;;29.42;4.93;;;8.10;99.90;;;;;;4959640;28;20027;-90
2021/01/12 06:27:32;;;;;;;23.58;4.93;;;8.00;99.90;;;;;;4959238;28;20023;-90
2021/01/12 06:30:03;;;;;;;23.73;5.03;;;8.00;99.90;;;;;;4958717;28;20039;-91
2021/01/12 06:32:30;;;;;;;25.45;4.13;;;8.10;99.90;;;;;;4959415;28;20026;-90
2021/01/12 06:35:08;;;;;;;12.52;2.78;;;8.10;99.90;;;;;;4958940;28;20023;-91
2021/01/12 06:37:41;;;;;;;15.48;3.70;;;7.80;99.90;;;;;;4959343;28;20047;-91
2021/01/12 06:40:29;;;;;;;15.25;3.10;;;7.80;99.90;;;;;;4959953;28;20043;-91
2021/01/12 06:42:59;;;;;;;9.00;2.70;;;7.70;99.90;;;;;;4960605;28;20145;-92
2021/01/12 06:45:29;;;;;;;9.63;2.63;;;7.70;99.90;;;;;;4960470;28;20035;-90
2021/01/12 06:47:58;;;;;;;16.92;3.33;;;7.70;99.90;;;;;;4959174;28;20031;-90
2021/01/12 06:50:24;;;;;;;6.93;2.17;;;7.70;99.90;;;;;;4959024;28;20035;-91
2021/01/12 06:52:58;;;;;;;7.50;2.10;;;7.60;99.90;;;;;;4959177;28;20019;-90
2021/01/12 06:55:24;;;;;;;11.67;3.43;;;7.50;99.90;;;;;;4965558;28;20095;-88
2021/01/12 06:57:58;;;;;;;14.02;3.45;;;7.40;99.90;;;;;;4968511;28;20162;-88
2021/01/12 07:00:25;;;;;;;11.85;2.80;;;7.40;99.90;;;;;;4958778;28;20039;-91
2021/01/12 07:02:58;;;;;;;16.40;3.05;;;7.30;99.90;;;;;;4958480;28;20054;-89
2021/01/12 07:05:24;;;;;;;15.88;2.60;;;7.20;99.90;;;;;;4957951;28;20031;-89
2021/01/12 07:07:52;;;;;;;17.10;4.28;;;7.20;99.90;;;;;;4957730;28;20033;-89
2021/01/12 07:10:23;;;;;;;15.48;3.28;;;7.00;99.90;;;;;;4975357;28;20050;-90
2021/01/12 07:12:50;;;;;;;13.13;3.15;;;7.00;99.90;;;;;;4958929;28;20026;-89
2021/01/12 07:15:21;;;;;;;13.05;3.10;;;7.00;99.90;;;;;;4959770;28;20457;-90
2021/01/12 07:17:52;;;;;;;11.95;2.83;;;7.00;99.90;;;;;;4959613;28;20133;-89
2021/01/12 07:20:19;;;;;;;18.65;4.15;;;7.00;99.90;;;;;;4959299;28;20130;-91
2021/01/12 07:23:01;;;;;;;10.63;3.13;;;6.90;99.90;;;;;;4958922;28;20055;-92
2021/01/12 07:25:33;;;;;;;9.52;2.75;;;6.90;99.90;;;;;;4958650;28;20203;-88
2021/01/12 07:28:06;;;;;;;15.82;2.97;;;6.80;99.90;;;;;;4958221;28;20058;-90
2021/01/12 07:30:39;;;;;;;16.27;3.40;;;6.90;99.90;;;;;;4958230;28;20086;-89
2021/01/12 07:33:06;;;;;;;13.23;2.85;;;6.90;99.90;;;;;;4958102;28;20058;-88
2021/01/12 07:35:38;;;;;;;15.32;3.10;;;6.90;99.90;;;;;;4958215;28;20030;-89
2021/01/12 07:38:04;;;;;;;13.05;3.15;;;6.80;99.90;;;;;;4958110;28;20046;-89
2021/01/12 07:40:30;;;;;;;24.70;3.35;;;6.80;99.90;;;;;;4957985;28;20445;-90
2021/01/12 07:43:07;;;;;;;18.23;3.13;;;6.70;99.90;;;;;;4978371;28;20050;-91
2021/01/12 07:45:34;;;;;;;12.70;2.67;;;6.80;99.90;;;;;;4959810;28;20027;-91
2021/01/12 07:48:10;;;;;;;13.32;2.72;;;6.70;99.90;;;;;;4959145;28;20408;-90
2021/01/12 07:50:36;;;;;;;14.23;3.10;;;6.60;99.90;;;;;;4958879;28;20034;-89
2021/01/12 07:53:05;;;;;;;16.08;2.83;;;6.70;99.90;;;;;;4957759;28;20503;-89
2021/01/12 07:55:31;;;;;;;12.73;2.50;;;6.70;99.90;;;;;;4958644;28;20027;-90
2021/01/12 07:57:57;;;;;;;14.27;2.63;;;6.70;99.90;;;;;;4959315;28;20068;-88
2021/01/12 08:00:24;;;;;;;17.10;2.78;;;6.70;99.90;;;;;;4965060;28;20125;-90
2021/01/12 08:02:54;;;;;;;15.93;3.13;;;6.70;99.90;;;;;;4972172;28;20031;-89
2021/01/12 08:05:24;;;;;;;12.18;2.53;;;6.80;99.90;;;;;;4979047;28;20125;-90
2021/01/12 08:08:03;;;;;;;19.67;4.40;;;6.80;99.90;;;;;;4968986;28;20026;-90
2021/01/12 08:10:37;;;;;;;31.77;5.38;;;6.80;99.90;;;;;;4970948;28;20027;-89
2021/01/12 08:13:06;;;;;;;17.83;4.15;;;6.90;99.90;;;;;;4972567;28;20122;-90
2021/01/12 08:15:34;;;;;;;24.77;5.38;;;6.90;99.90;;;;;;4972375;28;20034;-91
2021/01/12 08:18:00;;;;;;;17.85;4.25;;;6.90;99.90;;;;;;4970341;28;20046;-89
2021/01/12 08:20:29;;;;;;;18.67;4.63;;;6.80;99.90;;;;;;4971429;28;20070;-89
2021/01/12 08:22:58;;;;;;;12.32;2.80;;;6.80;99.90;;;;;;4990805;28;20105;-90
2021/01/12 08:25:24;;;;;;;15.50;2.63;;;6.80;99.90;;;;;;4963857;28;20035;-90
2021/01/12 08:27:56;;;;;;;19.38;2.60;;;6.60;99.90;;;;;;4962518;28;20576;-92
2021/01/12 08:30:24;;;;;;;7.03;2.05;;;6.70;99.90;;;;;;4961826;28;20067;-89
2021/01/12 08:33:02;;;;;;;9.88;2.55;;;6.60;99.90;;;;;;4964360;28;20393;-89
2021/01/12 08:35:29;;;;;;;16.80;3.50;;;6.70;99.90;;;;;;4961839;28;20034;-89
2021/01/12 08:38:00;;;;;;;13.48;2.85;;;6.70;99.90;;;;;;4961724;28;20033;-90
2021/01/12 08:40:31;;;;;;;13.95;3.00;;;6.70;99.90;;;;;;4961606;28;20039;-91
2021/01/12 08:43:02;;;;;;;17.45;3.60;;;6.70;99.90;;;;;;4961186;28;20062;-90
2021/01/12 08:45:35;;;;;;;15.95;3.03;;;6.70;99.90;;;;;;4978189;28;20105;-90
2021/01/12 08:48:11;;;;;;;17.10;2.75;;;6.60;99.90;;;;;;4960819;28;20544;-89
2021/01/12 08:50:40;;;;;;;7.50;2.40;;;6.50;99.90;;;;;;4960771;28;20026;-90
2021/01/12 08:53:06;;;;;;;9.30;2.67;;;6.50;99.90;;;;;;4962499;28;20035;-90
2021/01/12 08:55:33;;;;;;;17.70;3.45;;;6.40;99.90;;;;;;4961292;28;20031;-90
2021/01/12 08:58:04;;;;;;;18.30;2.97;;;6.40;99.90;;;;;;4961405;28;20114;-90
2021/01/12 09:00:38;;;;;;;15.18;2.40;;;6.30;99.90;;;;;;4962350;28;20082;-90
2021/01/12 09:03:05;;;;;;;11.07;2.97;;;6.40;99.90;;;;;;4966756;28;20027;-91
2021/01/12 09:05:36;;;;;;;12.60;3.08;;;6.30;99.90;;;;;;4967064;28;20035;-90
2021/01/12 09:08:05;;;;;;;13.02;3.20;;;6.40;99.90;;;;;;4966857;28;20031;-91
2021/01/12 09:10:35;;;;;;;22.88;3.63;;;6.40;99.90;;;;;;4965843;28;20057;-89
2021/01/12 09:13:04;;;;;;;16.80;3.95;;;6.50;99.90;;;;;;4966748;28;20054;-91
2021/01/12 09:15:51;;;;;;;16.58;3.67;;;6.40;99.90;;;;;;4967025;28;20027;-90
2021/01/12 09:18:23;;;;;;;17.70;3.58;;;6.50;99.90;;;;;;4966356;28;20027;-91
2021/01/12 09:21:02;;;;;;;12.55;3.13;;;6.40;99.90;;;;;;4965179;28;20034;-90
2021/01/12 09:23:30;;;;;;;13.27;2.78;;;6.30;99.90;;;;;;4982194;28;20027;-92
2021/01/12 09:26:00;;;;;;;15.20;2.70;;;6.30;99.90;;;;;;4965684;28;20559;-92
2021/01/12 09:28:27;;;;;;;9.40;2.10;;;6.10;99.90;;;;;;4965262;28;20034;-91
2021/01/12 09:31:13;;;;;;;8.40;1.77;;;6.00;99.90;;;;;;4965859;28;20596;-93
2021/01/12 09:33:43;;;;;;;7.25;2.00;;;6.00;99.90;;;;;;4966737;28;20059;-91
2021/01/12 09:36:15;;;;;;;12.77;2.13;;;6.00;99.90;;;;;;4964846;28;20031;-91
2021/01/12 09:38:43;;;;;;;9.25;1.65;;;6.00;99.90;;;;;;4965781;28;20030;-90
2021/01/12 09:41:09;;;;;;;10.48;1.80;;;6.00;99.90;;;;;;4965952;28;20506;-91
2021/01/12 09:43:50;;;;;;;11.18;2.78;;;6.10;99.90;;;;;;4966295;28;20062;-92
2021/01/12 09:46:16;;;;;;;9.40;2.60;;;6.10;99.90;;;;;;4966666;28;20034;-91
2021/01/12 09:48:43;;;;;;;12.98;3.20;;;6.00;99.90;;;;;;4967056;28;20449;-91
2021/01/12 09:51:13;;;;;;;16.67;3.38;;;5.90;99.90;;;;;;4965863;28;20026;-90
2021/01/12 09:53:40;;;;;;;14.55;3.20;;;5.90;99.90;;;;;;4965547;28;20027;-91
2021/01/12 09:56:12;;;;;;;17.73;3.45;;;6.00;99.90;;;;;;4964451;28;20086;-90
2021/01/12 09:58:39;;;;;;;8.82;3.05;;;6.00;99.90;;;;;;4964563;28;20034;-89
2021/01/12 10:01:07;;;;;;;26.00;3.33;;;6.00;99.90;;;;;;4963732;28;20038;-89
2021/01/12 10:03:35;;;;;;;15.65;3.50;;;6.00;99.90;;;;;;4952843;28;20045;-90
2021/01/12 10:06:02;;;;;;;30.15;4.55;;;6.20;99.90;;;;;;4970968;28;20035;-90
2021/01/12 10:08:31;;;;;;;16.02;4.13;;;6.20;99.90;;;;;;4969920;28;20035;-88
2021/01/12 10:10:59;;;;;;;12.38;3.47;;;6.10;99.90;;;;;;4969313;28;20030;-91
2021/01/12 10:13:28;;;;;;;15.93;3.42;;;6.10;99.90;;;;;;4974334;28;20042;-90
2021/01/12 10:15:56;;;;;;;24.10;3.60;;;6.10;99.90;;;;;;4973703;28;20477;-90
2021/01/12 10:18:22;;;;;;;12.90;3.33;;;6.10;99.90;;;;;;4970073;28;20027;-89
2021/01/12 10:20:51;;;;;;;17.23;3.20;;;6.10;99.90;;;;;;4968273;28;20571;-90
2021/01/12 10:23:16;;;;;;;14.48;3.60;;;6.20;99.90;;;;;;4966989;28;20050;-90
2021/01/12 10:25:45;;;;;;;14.45;3.13;;;6.20;99.90;;;;;;4971517;28;20027;-90
2021/01/12 10:28:20;;;;;;;13.63;3.05;;;6.20;99.90;;;;;;4977340;28;20178;-90
2021/01/12 10:30:46;;;;;;;;;;;6.20;99.90;;;;;;4979970;28;20046;-88
2021/01/12 10:33:14;;;;;;;16.77;4.03;;;6.20;99.90;;;;;;4981549;28;19914;-92
2021/01/12 10:35:40;;;;;;;11.85;2.85;;;6.30;99.90;;;;;;4979510;28;20031;-90
2021/01/12 10:38:08;;;;;;;9.35;2.80;;;6.30;99.90;;;;;;4975280;28;20114;-91
2021/01/12 10:40:36;;;;;;;13.60;2.70;;;6.40;99.90;;;;;;4989109;28;20035;-90
2021/01/12 10:43:02;;;;;;;18.85;5.78;;;6.50;99.90;;;;;;4973219;28;20053;-91
2021/01/12 10:45:27;;;;;;;12.98;2.72;;;6.60;99.90;;;;;;4968754;28;20453;-91
2021/01/12 10:48:12;;;;;;;10.77;2.08;;;6.50;99.90;;;;;;4963468;28;20053;-90
2021/01/12 10:50:52;;;;;;;11.60;3.25;;;6.50;99.90;;;;;;4964060;28;20039;-91
2021/01/12 10:53:20;;;;;;;16.48;2.80;;;6.50;99.90;;;;;;4973394;28;20046;-93
2021/01/12 10:55:56;;;;;;;13.45;2.95;;;6.50;99.90;;;;;;4971630;28;20038;-93
2021/01/12 10:58:24;;;;;;;10.27;2.40;;;6.50;99.90;;;;;;4971722;28;20029;-92
2021/01/12 11:01:13;;;;;;;12.85;4.55;;;6.50;99.90;;;;;;4956349;28;20043;-93
2021/01/12 11:03:41;;;;;;;9.60;2.85;;;6.50;99.90;;;;;;4981043;28;20039;-91
2021/01/12 11:06:19;;;;;;;10.55;2.80;;;6.50;99.90;;;;;;4962400;28;20120;-92
2021/01/12 11:08:54;;;;;;;11.75;2.30;;;6.50;99.90;;;;;;4962659;28;20031;-92
2021/01/12 11:11:36;;;;;;;;;;;;;;;;;;;;;
2021/01/12 11:14:08;;;;;;;15.63;3.20;;;6.50;99.90;;;;;;4980784;28;20105;-92
2021/01/12 11:16:48;;;;;;;18.05;3.08;;;6.60;99.90;;;;;;4962327;28;20121;-92
2021/01/12 11:19:40;;;;;;;11.00;2.65;;;6.60;99.90;;;;;;4962015;28;20031;-90
2021/01/12 11:22:14;;;;;;;10.57;3.75;;;6.60;99.90;;;;;;4962922;28;20059;-91
2021/01/12 11:24:41;;;;;;;16.40;3.67;;;6.70;99.90;;;;;;4961007;28;20031;-92
2021/01/12 11:27:13;;;;;;;19.88;2.65;;;6.80;99.90;;;;;;4962834;28;20035;-91
2021/01/12 11:29:39;;;;;;;15.75;2.85;;;6.90;99.90;;;;;;4963492;28;20125;-90
2021/01/12 11:32:10;;;;;;;7.95;2.67;;;7.00;99.90;;;;;;4966089;28;20457;-92
2021/01/12 11:34:36;;;;;;;14.63;2.72;;;7.00;99.90;;;;;;4965382;28;20050;-89
2021/01/12 11:37:02;;;;;;;12.82;2.67;;;7.00;99.90;;;;;;4989101;28;20438;-91
2021/01/12 11:40:11;;;;;;;22.77;3.28;;;7.00;99.90;;;;;;4989310;28;20045;-92
2021/01/12 11:42:48;;;;;;;10.02;2.58;;;6.80;99.90;;;;;;4971352;28;20105;-90
2021/01/12 11:45:23;;;;;;;13.35;2.42;;;6.70;99.90;;;;;;4985076;28;20038;-91
2021/01/12 11:47:49;;;;;;;13.23;2.55;;;6.50;99.90;;;;;;4986317;28;20038;-90
2021/01/12 11:50:34;;;;;;;13.15;2.60;;;6.60;99.90;;;;;;4993199;28;20046;-91
2021/01/12 11:53:00;;;;;;;13.35;2.92;;;6.70;99.90;;;;;;4999929;28;20065;-89
2021/01/12 11:55:31;;;;;;;11.82;2.90;;;6.70;99.90;;;;;;4999606;28;20031;-92
2021/01/12 11:58:06;;;;;;;14.32;3.03;;;6.80;99.90;;;;;;5000350;28;20014;-91
2021/01/12 12:00:32;;;;;;;;;;;6.90;99.90;;;;;;4999244;28;20062;-90
2021/01/12 12:03:02;;;;;;;15.48;2.67;;;7.10;99.90;;;;;;4999030;28;19918;-92
2021/01/12 12:05:45;;;;;;;8.13;2.03;;;7.40;99.90;;;;;;5014344;28;20039;-90
2021/01/12 12:08:20;;;;;;;12.98;2.30;;;7.90;99.90;;;;;;5016812;28;20023;-92
2021/01/12 12:11:03;;;;;;;20.80;2.65;;;7.90;99.90;;;;;;5001093;28;20014;-87
2021/01/12 12:13:44;;;;;;;13.80;2.50;;;7.60;99.90;;;;;;5017508;28;20015;-91
2021/01/12 12:16:16;;;;;;;7.13;1.73;;;7.50;99.90;;;;;;5017726;28;20099;-91
2021/01/12 12:18:43;;;;;;;10.00;2.53;;;7.50;99.90;;;;;;5000504;28;20098;-88
2021/01/12 12:21:18;;;;;;;13.10;2.65;;;7.50;99.90;;;;;;4999887;28;20038;-90
2021/01/12 12:23:46;;;;;;;21.15;3.85;;;7.40;99.90;;;;;;4999361;28;20062;-91
2021/01/12 12:26:17;;;;;;;18.98;3.00;;;7.40;99.90;;;;;;4998183;28;20093;-92
2021/01/12 12:28:44;;;;;;;16.55;3.20;;;7.40;99.90;;;;;;4996321;28;20023;-90
2021/01/12 12:31:16;;;;;;;9.57;2.30;;;7.30;99.90;;;;;;4995620;28;20098;-90
2021/01/12 12:33:43;;;;;;;11.60;2.50;;;7.10;99.90;;;;;;5002266;28;20069;-87
2021/01/12 12:36:19;;;;;;;6.57;2.40;;;7.10;99.90;;;;;;4991124;28;20030;-91
2021/01/12 12:38:53;;;;;;;5.65;2.55;;;7.00;99.90;;;;;;4997194;28;20022;-90
2021/01/12 12:41:31;;;;;;;18.50;2.75;;;6.90;99.90;;;;;;4990844;28;20049;-92
2021/01/12 12:44:06;;;;;;;16.58;3.00;;;6.90;99.90;;;;;;4975807;28;20053;-90
2021/01/12 12:46:39;;;;;;;16.83;3.60;;;6.80;99.90;;;;;;4984660;28;20034;-91
2021/01/12 12:49:05;;;;;;;18.58;2.97;;;6.80;99.90;;;;;;4967601;28;20130;-89
2021/01/12 12:51:36;;;;;;;14.35;3.22;;;6.80;99.90;;;;;;4999291;28;20465;-89
2021/01/12 12:54:11;;;;;;;16.52;2.72;;;6.90;99.90;;;;;;4998152;28;20022;-89
2021/01/12 12:56:39;;;;;;;20.83;3.53;;;7.00;99.90;;;;;;4999199;28;20034;-88
2021/01/12 12:59:07;;;;;;;18.38;3.47;;;7.10;99.90;;;;;;4987129;28;20034;-90
2021/01/12 13:01:33;;;;;;;8.40;3.13;;;7.10;99.90;;;;;;4983795;28;20038;-89
2021/01/12 13:04:00;;;;;;;14.52;3.10;;;7.10;99.90;;;;;;4989574;28;20023;-91